createdAt,value
2022-08-02T00:00:16.234Z,101861.19
2022-08-02T00:02:45.440Z,101852.75
2022-08-02T00:05:14.353Z,101850.25
2022-08-02T00:07:42.735Z,101849.72
2022-08-02T00:10:12.292Z,101849.72
2022-08-02T00:12:40.794Z,101850.88
2022-08-02T00:15:16.305Z,101852.22
2022-08-02T00:17:44.630Z,101845.22
2022-08-02T00:20:14.382Z,101847.22
2022-08-02T00:22:42.312Z,101834.81
2022-08-02T00:25:10.715Z,101839.59
2022-08-02T00:27:38.574Z,101845.22
2022-08-02T00:30:07.148Z,101835.66
2022-08-02T00:32:36.301Z,101829.19
2022-08-02T00:35:04.204Z,101832.31
2022-08-02T00:37:31.954Z,101825.84
2022-08-02T00:39:59.679Z,101832.31
2022-08-02T00:42:27.425Z,101830.63
2022-08-02T00:44:55.154Z,101814.91
2022-08-02T00:47:22.838Z,101817.72
2022-08-02T00:49:51.912Z,101814.06
2022-08-02T00:52:19.714Z,101801.97
2022-08-02T00:54:47.397Z,101800.31
2022-08-02T00:57:15.255Z,101800.63
2022-08-02T00:59:43.056Z,101789.38
2022-08-02T01:02:11.032Z,101792.50
2022-08-02T01:04:39.063Z,101786.56
2022-08-02T01:07:13.348Z,101790.22
2022-08-02T01:09:42.810Z,101797.81
2022-08-02T01:12:11.829Z,101803.97
2022-08-02T01:14:40.991Z,101799.69
2022-08-02T01:17:17.599Z,101798.75
2022-08-02T01:19:54.831Z,101798.97
2022-08-02T01:23:00.527Z,101802.31
2022-08-02T01:25:43.890Z,101789.91
2022-08-02T01:28:30.862Z,101792.09
2022-08-02T01:31:02.241Z,101796.88
2022-08-02T01:33:36.608Z,101790.94
2022-08-02T01:36:06.032Z,101797.72
2022-08-02T01:38:36.896Z,101788.75
2022-08-02T01:41:06.237Z,101791.03
2022-08-02T01:43:36.747Z,101788.53
2022-08-02T01:46:06.139Z,101782.38
2022-08-02T01:48:35.776Z,101779.56
2022-08-02T01:51:06.003Z,101780.41
2022-08-02T01:53:34.535Z,101780.41
2022-08-02T01:56:04.072Z,101773.09
2022-08-02T01:58:35.353Z,101765.81
2022-08-02T02:01:07.365Z,101766.44
2022-08-02T02:03:35.252Z,101767.38
2022-08-02T02:06:12.503Z,101763.53
2022-08-02T02:08:42.616Z,101770.00
2022-08-02T02:12:09.456Z,101764.34
2022-08-02T02:13:59.751Z,101774.56
2022-08-02T02:16:30.435Z,101764.97
2022-08-02T02:19:00.599Z,101766.13
2022-08-02T02:21:28.375Z,101756.00
2022-08-02T02:24:00.122Z,101763.94
2022-08-02T02:26:31.902Z,101747.88
2022-08-02T02:29:02.301Z,101753.81
2022-08-02T02:31:35.430Z,101749.66
2022-08-02T02:34:06.888Z,101738.16
2022-08-02T02:36:35.942Z,101747.75
2022-08-02T02:39:11.627Z,101741.28
2022-08-02T02:41:43.474Z,101741.63
2022-08-02T02:44:15.385Z,101736.00
2022-08-02T02:46:45.930Z,101735.19
2022-08-02T02:49:16.229Z,101726.19
2022-08-02T02:51:45.461Z,101740.25
2022-08-02T02:54:32.728Z,101729.84
2022-08-02T02:57:03.016Z,101735.75
2022-08-02T02:59:31.814Z,101725.34
2022-08-02T03:02:01.363Z,101725.34
2022-08-02T03:04:55.413Z,101728.72
2022-08-02T03:07:17.881Z,101721.41
2022-08-02T03:09:53.729Z,101723.63
2022-08-02T03:12:28.470Z,101719.13
2022-08-02T03:14:59.606Z,101713.69
2022-08-02T03:17:38.710Z,101715.56
2022-08-02T03:20:10.667Z,101711.09
2022-08-02T03:22:38.453Z,101716.41
2022-08-02T03:25:07.365Z,101709.84
2022-08-02T03:27:35.117Z,101706.41
2022-08-02T03:30:02.956Z,101704.13
2022-08-02T03:32:32.290Z,101697.66
2022-08-02T03:35:00.146Z,101697.34
2022-08-02T03:37:29.405Z,101682.13
2022-08-02T03:39:58.720Z,101686.09
2022-08-02T03:42:28.508Z,101677.66
2022-08-02T03:44:57.198Z,101671.19
2022-08-02T03:47:25.761Z,101674.81
2022-08-02T03:49:55.923Z,101667.84
2022-08-02T03:52:24.693Z,101674.94
2022-08-02T03:54:52.456Z,101674.09
2022-08-02T03:57:20.362Z,101673.56
2022-08-02T03:59:48.451Z,101672.22
2022-08-02T04:02:16.257Z,101667.75
2022-08-02T04:04:44.027Z,101669.41
2022-08-02T04:07:13.137Z,101672.84
2022-08-02T04:09:40.903Z,101668.88
2022-08-02T04:12:09.152Z,101668.88
2022-08-02T04:14:37.299Z,101662.72
2022-08-02T04:17:08.733Z,101659.28
2022-08-02T04:19:40.372Z,101651.47
2022-08-02T04:22:14.464Z,101659.91
2022-08-02T04:24:50.553Z,101665.22
2022-08-02T04:28:15.334Z,101661.59
2022-08-02T04:30:10.149Z,101665.22
2022-08-02T04:32:39.281Z,101661.78
2022-08-02T04:35:19.239Z,101671.91
2022-08-02T04:38:08.887Z,101675.03
2022-08-02T04:40:37.506Z,101674.72
2022-08-02T04:43:05.313Z,101679.81
2022-08-02T04:45:33.730Z,101670.56
2022-08-02T04:48:05.069Z,101680.13
2022-08-02T04:50:33.559Z,101684.09
2022-08-02T04:53:01.296Z,101681.28
2022-08-02T04:55:30.009Z,101684.09
2022-08-02T04:58:03.765Z,101676.19
2022-08-02T05:00:35.191Z,101675.97
2022-08-02T05:03:03.108Z,101670.03
2022-08-02T05:05:31.002Z,101671.91
2022-08-02T05:07:58.764Z,101663.69
2022-08-02T05:10:26.511Z,101663.06
2022-08-02T05:12:54.268Z,101666.56
2022-08-02T05:15:23.400Z,101667.81
2022-08-02T05:17:51.196Z,101669.06
2022-08-02T05:20:20.339Z,101670.28
2022-08-02T05:22:48.146Z,101659.13
2022-08-02T05:25:16.219Z,101669.94
2022-08-02T05:27:44.004Z,101668.03
2022-08-02T05:30:12.708Z,101668.94
2022-08-02T05:32:50.488Z,101668.38
2022-08-02T05:35:19.687Z,101667.63
2022-08-02T05:37:48.134Z,101664.56
2022-08-02T05:40:17.695Z,101668.59
2022-08-02T05:42:54.097Z,101661.66
2022-08-02T05:45:22.011Z,101662.88
2022-08-02T05:47:51.307Z,101654.47
2022-08-02T05:50:19.520Z,101661.31
2022-08-02T05:52:52.400Z,101659.19
2022-08-02T05:55:28.455Z,101661.22
2022-08-02T05:58:03.954Z,101656.59
2022-08-02T06:00:35.273Z,101648.81
2022-08-02T06:03:22.847Z,101642.72
2022-08-02T06:05:57.792Z,101652.03
2022-08-02T06:08:31.950Z,101650.59
2022-08-02T06:11:02.782Z,101641.84
2022-08-02T06:13:30.619Z,101642.38
2022-08-02T06:15:59.606Z,101635.06
2022-08-02T06:18:29.502Z,101628.78
2022-08-02T06:20:59.319Z,101623.63
2022-08-02T06:23:58.063Z,101631.47
2022-08-02T06:26:28.251Z,101623.97
2022-08-02T06:28:58.262Z,101613.31
2022-08-02T06:31:26.544Z,101601.84
2022-08-02T06:33:56.181Z,101606.34
2022-08-02T06:36:31.691Z,101602.09
2022-08-02T06:39:09.481Z,101608.44
2022-08-02T06:41:42.318Z,101603.78
2022-08-02T06:44:45.570Z,101600.28
2022-08-02T06:47:12.393Z,101609.44
2022-08-02T06:49:53.043Z,101606.56
2022-08-02T06:52:27.845Z,101606.34
2022-08-02T06:54:56.815Z,101610.56
2022-08-02T06:57:24.874Z,101601.75
2022-08-02T06:59:52.698Z,101602.03
2022-08-02T07:02:20.557Z,101611.72
2022-08-02T07:04:49.724Z,101604.03
2022-08-02T07:07:17.599Z,101607.47
2022-08-02T07:10:00.024Z,101606.97
2022-08-02T07:12:29.980Z,101603.19
2022-08-02T07:14:58.388Z,101592.97
2022-08-02T07:17:26.425Z,101590.63
2022-08-02T07:19:55.661Z,101588.97
2022-08-02T07:22:24.557Z,101593.88
2022-08-02T07:24:52.675Z,101594.53
2022-08-02T07:27:20.470Z,101592.50
2022-08-02T07:29:48.264Z,101592.16
2022-08-02T07:32:16.886Z,101581.13
2022-08-02T07:34:50.427Z,101594.88
2022-08-02T07:37:29.178Z,101587.94
2022-08-02T07:40:13.717Z,101585.00
2022-08-02T07:42:43.937Z,101572.41
2022-08-02T07:45:13.020Z,101574.03
2022-08-02T07:47:41.888Z,101573.28
2022-08-02T07:50:11.928Z,101565.66
2022-08-02T07:52:41.716Z,101567.28
2022-08-02T07:55:10.913Z,101558.19
2022-08-02T07:57:45.429Z,101564.19
2022-08-02T08:00:15.977Z,101569.63
2022-08-02T08:02:43.846Z,101561.25
2022-08-02T08:05:12.283Z,101570.09
2022-08-02T08:07:41.565Z,101568.44
2022-08-02T08:10:10.264Z,101582.69
2022-08-02T08:12:37.978Z,101567.00
2022-08-02T08:15:06.854Z,101572.59
2022-08-02T08:17:35.071Z,101578.91
2022-08-02T08:20:03.203Z,101576.22
2022-08-02T08:22:31.049Z,101568.41
2022-08-02T08:25:00.208Z,101577.81
2022-08-02T08:27:27.944Z,101572.88
2022-08-02T08:29:55.665Z,101556.50
2022-08-02T08:32:23.942Z,101556.28
2022-08-02T08:34:51.985Z,101556.59
2022-08-02T08:37:19.764Z,101562.66
2022-08-02T08:39:58.011Z,101560.28
2022-08-02T08:42:28.651Z,101569.06
2022-08-02T08:44:57.826Z,101566.75
2022-08-02T08:47:37.879Z,101559.38
2022-08-02T08:50:10.414Z,101560.94
2022-08-02T08:52:43.901Z,101557.56
2022-08-02T08:55:12.255Z,101554.53
2022-08-02T08:57:43.907Z,101555.81
2022-08-02T09:00:13.960Z,101555.47
2022-08-02T09:02:43.441Z,101546.44
2022-08-02T09:05:12.733Z,101542.53
2022-08-02T09:07:42.751Z,101547.31
2022-08-02T09:10:36.061Z,101556.44
2022-08-02T09:13:38.419Z,101580.72
2022-08-02T09:16:11.706Z,101581.97
2022-08-02T09:18:44.569Z,101567.84
2022-08-02T09:21:13.654Z,101572.09
2022-08-02T09:23:44.001Z,101565.69
2022-08-02T09:26:13.547Z,101561.94
2022-08-02T09:28:44.511Z,101565.53
2022-08-02T09:31:14.300Z,101576.69
2022-08-02T09:33:44.094Z,101567.88
2022-08-02T09:36:13.128Z,101562.66
2022-08-02T09:38:41.763Z,101569.56
2022-08-02T09:41:23.305Z,101588.84
2022-08-02T09:44:05.519Z,101582.56
2022-08-02T09:46:37.867Z,101596.38
2022-08-02T09:49:09.121Z,101593.59
2022-08-02T09:51:39.370Z,101590.44
2022-08-02T09:54:09.406Z,101591.66
2022-08-02T09:56:43.684Z,101580.19
2022-08-02T09:59:14.008Z,101584.09
2022-08-02T10:01:50.567Z,101579.13
2022-08-02T10:04:27.311Z,101589.53
2022-08-02T10:06:55.208Z,101588.50
2022-08-02T10:09:23.699Z,101591.03
2022-08-02T10:11:52.634Z,101602.53
2022-08-02T10:14:23.472Z,101596.81
2022-08-02T10:16:54.421Z,101585.16
2022-08-02T10:20:00.824Z,101586.16
2022-08-02T10:22:12.243Z,101598.13
2022-08-02T10:24:47.450Z,101589.03
2022-08-02T10:27:18.914Z,101601.03
2022-08-02T10:29:54.347Z,101595.63
2022-08-02T10:32:28.201Z,101593.31
2022-08-02T10:35:02.743Z,101597.72
2022-08-02T10:37:48.779Z,101594.09
2022-08-02T10:40:24.089Z,101597.81
2022-08-02T10:42:53.413Z,101585.31
2022-08-02T10:45:24.110Z,101591.38
2022-08-02T10:47:59.526Z,101605.03
2022-08-02T10:50:53.590Z,101599.50
2022-08-02T10:53:23.875Z,101600.25
2022-08-02T10:55:52.191Z,101597.69
2022-08-02T10:58:21.690Z,101599.94
2022-08-02T11:00:55.644Z,101595.09
2022-08-02T11:03:40.078Z,101585.72
2022-08-02T11:06:09.621Z,101588.94
2022-08-02T11:09:26.046Z,101587.38
2022-08-02T11:12:02.774Z,101577.66
2022-08-02T11:14:31.041Z,101600.53
2022-08-02T11:17:16.884Z,101596.09
2022-08-02T11:20:17.897Z,101582.41
2022-08-02T11:22:47.862Z,101579.66
2022-08-02T11:26:02.676Z,101582.19
2022-08-02T11:28:26.065Z,101580.41
2022-08-02T11:31:02.829Z,101579.59
2022-08-02T11:33:36.876Z,101571.31
2022-08-02T11:36:07.624Z,101573.19
2022-08-02T11:38:35.674Z,101577.56
2022-08-02T11:41:06.223Z,101581.59
2022-08-02T11:43:38.446Z,101592.13
2022-08-02T11:46:12.853Z,101591.31
2022-08-02T11:48:44.210Z,101590.00
2022-08-02T11:51:14.073Z,101587.16
2022-08-02T11:53:47.137Z,101581.72
2022-08-02T11:56:22.362Z,101583.63
2022-08-02T11:59:03.349Z,101576.47
2022-08-02T12:01:32.304Z,101578.91
2022-08-02T12:04:07.776Z,101584.16
2022-08-02T12:06:36.020Z,101583.41
2022-08-02T12:09:06.250Z,101590.44
2022-08-02T12:11:48.980Z,101592.41
2022-08-02T12:14:16.738Z,101581.13
2022-08-02T12:17:02.293Z,101584.88
2022-08-02T12:19:32.467Z,101582.56
2022-08-02T12:22:12.459Z,101597.91
2022-08-02T12:24:42.628Z,101591.22
2022-08-02T12:27:10.848Z,101585.34
2022-08-02T12:29:55.846Z,101584.31
2022-08-02T12:32:25.871Z,101599.31
2022-08-02T12:35:09.098Z,101588.56
2022-08-02T12:37:37.671Z,101595.91
2022-08-02T12:40:26.389Z,101590.38
2022-08-02T12:42:56.168Z,101600.06
2022-08-02T12:45:24.386Z,101588.94
2022-08-02T12:47:54.031Z,101589.31
2022-08-02T12:50:29.332Z,101583.88
2022-08-02T12:53:11.216Z,101584.16
2022-08-02T12:56:01.474Z,101582.03
2022-08-02T12:58:31.650Z,101593.31
2022-08-02T13:01:01.203Z,101587.09
2022-08-02T13:04:07.457Z,101587.38
2022-08-02T13:09:17.975Z,101589.38
2022-08-02T13:11:46.205Z,101603.25
2022-08-02T13:14:14.520Z,101588.34
2022-08-02T13:16:44.550Z,101586.84
2022-08-02T13:19:13.201Z,101575.59
2022-08-02T13:22:02.797Z,101569.31
2022-08-02T13:24:38.537Z,101566.59
2022-08-02T13:27:09.587Z,101568.22
2022-08-02T13:29:37.911Z,101567.22
2022-08-02T13:32:06.161Z,101575.31
2022-08-02T13:34:34.078Z,101586.97
2022-08-02T13:37:03.868Z,101579.72
2022-08-02T13:39:31.684Z,101574.31
2022-08-02T13:42:00.106Z,101577.09
2022-08-02T13:44:28.050Z,101586.06
2022-08-02T13:46:55.878Z,101573.56
2022-08-02T13:49:51.212Z,101569.78
2022-08-02T13:52:13.686Z,101567.94
2022-08-02T13:54:41.704Z,101561.44
2022-08-02T13:57:09.430Z,101559.34
2022-08-02T13:59:58.454Z,101560.44
2022-08-02T14:02:25.195Z,101555.41
2022-08-02T14:04:52.937Z,101556.41
2022-08-02T14:07:22.454Z,101545.00
2022-08-02T14:09:50.304Z,101542.16
2022-08-02T14:12:18.085Z,101532.06
2022-08-02T14:14:45.840Z,101549.78
2022-08-02T14:17:14.112Z,101535.38
2022-08-02T14:19:41.908Z,101524.53
2022-08-02T14:22:11.373Z,101521.16
2022-08-02T14:24:42.224Z,101516.47
2022-08-02T14:27:10.325Z,101522.53
2022-08-02T14:29:38.134Z,101515.16
2022-08-02T14:32:06.614Z,101519.13
2022-08-02T14:34:34.317Z,101518.38
2022-08-02T14:37:02.061Z,101518.56
2022-08-02T14:39:43.190Z,101516.56
2022-08-02T14:42:18.850Z,101519.69
2022-08-02T14:44:46.685Z,101516.56
2022-08-02T14:47:14.466Z,101523.31
2022-08-02T14:49:44.990Z,101517.72
2022-08-02T14:52:15.411Z,101512.22
2022-08-02T14:54:44.024Z,101524.97
2022-08-02T14:57:14.542Z,101508.88
2022-08-02T14:59:43.900Z,101507.91
2022-08-02T15:02:13.546Z,101508.63
2022-08-02T15:04:43.402Z,101496.03
2022-08-02T15:07:12.127Z,101494.03
2022-08-02T15:09:40.131Z,101482.25
2022-08-02T15:12:08.982Z,101484.06
2022-08-02T15:14:36.797Z,101484.25
2022-08-02T15:17:06.081Z,101487.06
2022-08-02T15:19:57.843Z,101498.25
2022-08-02T15:22:21.831Z,101485.56
2022-08-02T15:24:49.956Z,101488.94
2022-08-02T15:27:18.316Z,101484.59
2022-08-02T15:29:47.487Z,101486.97
2022-08-02T15:32:18.784Z,101497.47
2022-08-02T15:34:46.793Z,101500.28
2022-08-02T15:37:14.522Z,101493.13
2022-08-02T15:39:47.867Z,101497.41
2022-08-02T15:42:18.380Z,101498.22
2022-08-02T15:44:46.174Z,101483.66
2022-08-02T15:47:13.933Z,101480.91
2022-08-02T15:49:43.390Z,101476.47
2022-08-02T15:52:11.601Z,101485.56
2022-08-02T15:54:39.504Z,101485.19
2022-08-02T15:57:07.812Z,101474.09
2022-08-02T15:59:35.645Z,101486.06
2022-08-02T16:02:04.083Z,101485.91
2022-08-02T16:04:31.887Z,101477.63
2022-08-02T16:07:01.359Z,101481.94
2022-08-02T16:09:29.873Z,101472.53
2022-08-02T16:11:57.899Z,101479.84
2022-08-02T16:14:25.860Z,101476.56
2022-08-02T16:16:53.566Z,101473.03
2022-08-02T16:19:46.100Z,101482.41
2022-08-02T16:22:11.304Z,101474.09
2022-08-02T16:24:39.482Z,101483.28
2022-08-02T16:27:08.337Z,101484.28
2022-08-02T16:29:37.420Z,101488.69
2022-08-02T16:32:06.715Z,101475.59
2022-08-02T16:34:56.784Z,101470.38
2022-08-02T16:37:27.687Z,101476.41
2022-08-02T16:40:15.405Z,101467.34
2022-08-02T16:42:50.324Z,101482.94
2022-08-02T16:45:20.043Z,101481.75
2022-08-02T16:50:37.174Z,101492.03
2022-08-02T16:53:07.525Z,101480.41
2022-08-02T16:55:35.895Z,101486.16
2022-08-02T16:58:03.719Z,101467.44
2022-08-02T17:00:31.941Z,101470.28
2022-08-02T17:03:13.275Z,101469.34
2022-08-02T17:05:55.730Z,101462.19
2022-08-02T17:08:31.882Z,101469.06
2022-08-02T17:11:03.670Z,101470.88
2022-08-02T17:13:31.599Z,101457.84
2022-08-02T17:16:20.623Z,101470.84
2022-08-02T17:18:53.075Z,101468.84
2022-08-02T17:21:20.915Z,101467.19
2022-08-02T17:24:04.854Z,101472.41
2022-08-02T17:26:34.939Z,101464.13
2022-08-02T17:29:14.241Z,101477.16
2022-08-02T17:31:45.518Z,101471.56
2022-08-02T17:34:30.913Z,101459.97
2022-08-02T17:37:00.075Z,101458.06
2022-08-02T17:39:33.605Z,101469.91
2022-08-02T17:42:02.750Z,101474.75
2022-08-02T17:44:37.273Z,101476.41
2022-08-02T17:47:08.738Z,101475.38
2022-08-02T17:49:44.161Z,101470.41
2022-08-02T17:52:47.672Z,101469.56
2022-08-02T17:55:03.370Z,101467.44
2022-08-02T17:57:55.305Z,101463.09
2022-08-02T18:00:20.003Z,101476.16
2022-08-02T18:02:52.859Z,101464.69
2022-08-02T18:08:18.320Z,101454.66
2022-08-02T18:10:47.612Z,101465.94
2022-08-02T18:13:18.304Z,101468.53
2022-08-02T18:15:46.150Z,101466.28
2022-08-02T18:18:16.946Z,101472.69
2022-08-02T18:20:47.672Z,101467.28
2022-08-02T18:23:15.795Z,101465.84
2022-08-02T18:25:46.975Z,101463.84
2022-08-02T18:28:18.547Z,101466.56
2022-08-02T18:30:46.329Z,101464.44
2022-08-02T18:33:59.778Z,101466.81
2022-08-02T18:36:02.110Z,101464.06
2022-08-02T18:38:32.959Z,101465.59
2022-08-02T18:41:12.828Z,101455.66
2022-08-02T18:43:47.808Z,101454.38
2022-08-02T18:46:17.204Z,101457.56
2022-08-02T18:48:48.340Z,101455.53
2022-08-02T18:51:18.612Z,101453.91
2022-08-02T18:53:48.893Z,101451.66
2022-08-02T18:56:19.362Z,101452.03
2022-08-02T18:58:50.103Z,101447.06
2022-08-02T19:01:31.316Z,101445.03
2022-08-02T19:04:00.673Z,101442.91
2022-08-02T19:06:29.128Z,101448.09
2022-08-02T19:09:05.857Z,101441.50
2022-08-02T19:11:47.393Z,101459.25
2022-08-02T19:14:27.641Z,101455.94
2022-08-02T19:17:11.598Z,101456.63
2022-08-02T19:19:44.165Z,101453.66
2022-08-02T19:22:17.848Z,101454.00
2022-08-02T19:24:47.798Z,101443.38
2022-08-02T19:27:20.698Z,101446.09
2022-08-02T19:30:03.946Z,101446.47
2022-08-02T19:32:41.531Z,101445.50
2022-08-02T19:35:29.564Z,101438.88
2022-08-02T19:38:08.791Z,101450.22
2022-08-02T19:40:37.242Z,101445.25
2022-08-02T19:44:26.075Z,101443.13
2022-08-02T19:45:57.094Z,101445.13
2022-08-02T19:48:27.091Z,101447.47
2022-08-02T19:51:00.578Z,101451.50
2022-08-02T19:53:47.986Z,101464.03
2022-08-02T19:56:25.279Z,101449.34
2022-08-02T19:58:57.731Z,101452.88
2022-08-02T20:01:38.393Z,101456.06
2022-08-02T20:04:12.874Z,101459.25
2022-08-02T20:06:46.091Z,101451.09
2022-08-02T20:09:22.459Z,101449.44
2022-08-02T20:11:54.274Z,101443.75
2022-08-02T20:14:27.044Z,101459.13
2022-08-02T20:16:58.405Z,101448.59
2022-08-02T20:19:29.675Z,101444.47
2022-08-02T20:21:59.994Z,101446.47
2022-08-02T20:24:29.439Z,101445.16
2022-08-02T20:27:00.388Z,101446.81
2022-08-02T20:29:43.769Z,101449.66
2022-08-02T20:35:09.606Z,101450.00
2022-08-02T20:37:59.382Z,101447.50
2022-08-02T20:40:25.720Z,101450.72
2022-08-02T20:42:55.118Z,101449.16
2022-08-02T20:45:25.200Z,101450.34
2022-08-02T20:47:56.408Z,101444.94
2022-08-02T20:50:45.337Z,101447.63
2022-08-02T20:53:23.943Z,101446.59
2022-08-02T20:55:55.643Z,101440.91
2022-08-02T20:58:26.812Z,101447.75
2022-08-02T21:01:00.752Z,101445.75
2022-08-02T21:03:39.412Z,101451.06
2022-08-02T21:06:08.903Z,101439.25
2022-08-02T21:08:38.210Z,101444.56
2022-08-02T21:11:08.971Z,101448.25
2022-08-02T21:13:47.008Z,101435.59
2022-08-02T21:16:33.244Z,101439.59
2022-08-02T21:19:03.048Z,101431.94
2022-08-02T21:21:35.901Z,101441.59
2022-08-02T21:24:06.023Z,101438.78
2022-08-02T21:26:33.922Z,101436.78
2022-08-02T21:29:03.226Z,101442.44
2022-08-02T21:31:35.631Z,101424.59
2022-08-02T21:34:21.828Z,101429.09
2022-08-02T21:36:53.724Z,101417.28
2022-08-02T21:39:21.519Z,101423.44
2022-08-02T21:41:49.786Z,101432.75
2022-08-02T21:44:18.974Z,101439.25
2022-08-02T21:46:49.522Z,101437.59
2022-08-02T21:49:19.971Z,101438.44
2022-08-02T21:51:49.815Z,101429.94
2022-08-02T21:54:20.265Z,101430.75
2022-08-02T21:56:50.111Z,101432.41
2022-08-02T21:59:26.331Z,101434.41
2022-08-02T22:01:56.499Z,101432.41
2022-08-02T22:04:27.934Z,101430.41
2022-08-02T22:06:55.971Z,101427.09
2022-08-02T22:09:42.293Z,101428.75
2022-08-02T22:12:12.858Z,101432.75
2022-08-02T22:14:49.640Z,101440.09
2022-08-02T22:17:51.686Z,101429.09
2022-08-02T22:20:12.773Z,101428.63
2022-08-02T22:22:41.672Z,101430.63
2022-08-02T22:25:26.327Z,101434.63
2022-08-02T22:28:35.100Z,101426.97
2022-08-02T22:30:46.376Z,101427.31
2022-08-02T22:33:38.015Z,101422.47
2022-08-02T22:36:07.625Z,101430.97
2022-08-02T22:38:39.382Z,101425.31
2022-08-02T22:41:12.555Z,101421.28
2022-08-02T22:43:40.852Z,101435.81
2022-08-02T22:46:09.111Z,101434.97
2022-08-02T22:48:40.197Z,101434.97
2022-08-02T22:51:09.458Z,101434.50
2022-08-02T22:53:37.161Z,101434.84
2022-08-02T22:56:06.305Z,101434.03
2022-08-02T22:58:34.109Z,101438.84
2022-08-02T22:58:34.852Z,101488.34
2022-08-02T22:58:43.166Z,101462.09
2022-08-02T22:59:06.783Z,101449.16
2022-08-02T23:01:02.091Z,101444.53
2022-08-02T23:03:29.916Z,101439.69
2022-08-02T23:05:58.100Z,101433.53
2022-08-02T23:08:27.182Z,101437.19
2022-08-02T23:10:54.914Z,101432.22
2022-08-02T23:13:26.687Z,101437.06
2022-08-02T23:16:13.980Z,101438.72
2022-08-02T23:18:59.094Z,101435.44
2022-08-02T23:22:01.003Z,101438.28
2022-08-02T23:24:22.583Z,101434.94
2022-08-02T23:26:50.415Z,101440.63
2022-08-02T23:29:18.186Z,101425.97
2022-08-02T23:31:45.936Z,101427.63
2022-08-02T23:34:14.245Z,101435.31
2022-08-02T23:36:42.012Z,101433.66
2022-08-02T23:39:09.716Z,101434.00
2022-08-02T23:41:38.790Z,101436.00
2022-08-02T23:44:15.070Z,101436.34
2022-08-02T23:46:43.308Z,101433.50
2022-08-02T23:49:12.703Z,101427.84
2022-08-02T23:51:40.628Z,101435.16
2022-08-02T23:54:08.795Z,101438.00
2022-08-02T23:56:38.865Z,101440.81
2022-08-02T23:59:07.595Z,101433.50
